createdAt,value
2019-03-26T00:00:02.429Z,9.13
2019-03-26T00:00:43.567Z,8.23
2019-03-26T00:01:22.172Z,7.22
2019-03-26T00:01:59.823Z,11.78
2019-03-26T00:02:38.100Z,8.08
2019-03-26T00:03:16.388Z,14.45
2019-03-26T00:04:05.272Z,9.00
2019-03-26T00:04:33.987Z,8.93
2019-03-26T00:05:12.084Z,6.30
2019-03-26T00:05:50.723Z,11.45
2019-03-26T00:06:28.907Z,5.47
2019-03-26T00:07:07.442Z,12.58
2019-03-26T00:07:45.484Z,11.10
2019-03-26T00:08:23.890Z,13.05
2019-03-26T00:09:02.454Z,16.10
2019-03-26T00:09:40.475Z,10.60
2019-03-26T00:10:18.801Z,12.30
2019-03-26T00:10:56.480Z,9.40
2019-03-26T00:11:34.449Z,9.30
2019-03-26T00:12:13.088Z,11.12
2019-03-26T00:12:51.056Z,7.83
2019-03-26T00:13:28.675Z,7.28
2019-03-26T00:14:07.192Z,14.30
2019-03-26T00:14:45.554Z,10.50
2019-03-26T00:15:23.592Z,10.32
2019-03-26T00:16:01.884Z,7.85
2019-03-26T00:16:39.885Z,11.12
2019-03-26T00:17:18.133Z,11.12
2019-03-26T00:17:55.887Z,7.08
2019-03-26T00:18:34.326Z,9.65
2019-03-26T00:19:12.923Z,10.53
2019-03-26T00:19:51.207Z,8.85
2019-03-26T00:20:29.196Z,7.42
2019-03-26T00:21:07.140Z,8.33
2019-03-26T00:21:45.453Z,9.48
2019-03-26T00:22:23.927Z,13.72
2019-03-26T00:23:02.426Z,9.10
2019-03-26T00:23:41.681Z,14.93
2019-03-26T00:24:20.334Z,10.98
2019-03-26T00:24:58.721Z,9.85
2019-03-26T00:25:36.351Z,16.05
2019-03-26T00:26:14.940Z,10.48
2019-03-26T00:26:53.218Z,9.43
2019-03-26T00:27:31.406Z,10.78
2019-03-26T00:28:09.392Z,16.65
2019-03-26T00:28:47.822Z,12.90
2019-03-26T00:29:25.991Z,10.80
2019-03-26T00:30:04.539Z,13.70
2019-03-26T00:30:43.002Z,7.22
2019-03-26T00:31:21.544Z,10.93
2019-03-26T00:31:59.901Z,6.75
2019-03-26T00:32:37.556Z,8.98
2019-03-26T00:33:15.175Z,12.07
2019-03-26T00:34:19.413Z,11.43
2019-03-26T00:34:55.031Z,13.50
2019-03-26T00:35:33.095Z,6.62
2019-03-26T00:36:10.978Z,7.83
2019-03-26T00:36:49.290Z,6.10
2019-03-26T00:37:27.673Z,8.33
2019-03-26T00:38:06.072Z,10.18
2019-03-26T00:38:43.794Z,10.20
2019-03-26T00:39:21.858Z,7.40
2019-03-26T00:40:00.231Z,8.63
2019-03-26T00:40:40.147Z,9.93
2019-03-26T00:41:18.379Z,11.65
2019-03-26T00:41:57.003Z,8.03
2019-03-26T00:42:35.660Z,10.05
2019-03-26T00:43:13.840Z,13.60
2019-03-26T00:43:51.720Z,15.68
2019-03-26T00:44:30.230Z,14.07
2019-03-26T00:45:09.095Z,9.98
2019-03-26T00:45:47.806Z,8.95
2019-03-26T00:46:25.795Z,9.65
2019-03-26T00:47:03.780Z,8.60
2019-03-26T00:47:42.419Z,8.90
2019-03-26T00:48:21.052Z,11.30
2019-03-26T00:48:59.240Z,13.85
2019-03-26T00:49:37.969Z,8.55
2019-03-26T00:50:16.685Z,6.28
2019-03-26T00:50:55.308Z,10.28
2019-03-26T00:51:33.254Z,13.90
2019-03-26T00:52:11.198Z,10.63
2019-03-26T00:52:49.809Z,8.63
2019-03-26T00:53:27.431Z,7.62
2019-03-26T00:54:05.518Z,10.65
2019-03-26T00:54:43.407Z,10.75
2019-03-26T00:55:22.937Z,10.48
2019-03-26T00:56:00.872Z,12.18
2019-03-26T00:56:39.071Z,8.85
2019-03-26T00:57:17.543Z,10.68
2019-03-26T00:57:55.767Z,6.35
2019-03-26T00:58:34.301Z,12.35
2019-03-26T00:59:12.805Z,11.88
2019-03-26T00:59:51.307Z,10.05
2019-03-26T01:00:47.645Z,8.40
2019-03-26T01:01:26.200Z,9.65
2019-03-26T01:02:04.497Z,13.18
2019-03-26T01:02:43.083Z,18.25
2019-03-26T01:03:21.343Z,10.55
2019-03-26T01:03:58.989Z,11.88
2019-03-26T01:04:37.568Z,7.20
2019-03-26T01:05:16.144Z,9.50
2019-03-26T01:05:54.814Z,9.88
2019-03-26T01:06:33.416Z,13.75
2019-03-26T01:07:12.024Z,9.65
2019-03-26T01:07:49.910Z,10.60
2019-03-26T01:08:28.162Z,12.15
2019-03-26T01:09:07.833Z,8.38
2019-03-26T01:09:46.375Z,9.95
2019-03-26T01:10:30.846Z,11.93
2019-03-26T01:11:08.762Z,9.53
2019-03-26T01:11:47.500Z,11.08
2019-03-26T01:12:25.199Z,17.87
2019-03-26T01:13:03.651Z,7.92
2019-03-26T01:13:40.944Z,8.48
2019-03-26T01:14:19.328Z,9.60
2019-03-26T01:14:57.984Z,13.32
2019-03-26T01:15:36.316Z,12.30
2019-03-26T01:16:14.585Z,11.10
2019-03-26T01:16:52.318Z,14.68
2019-03-26T01:17:30.306Z,6.92
2019-03-26T01:18:08.728Z,11.90
2019-03-26T01:18:46.694Z,11.97
2019-03-26T01:19:24.988Z,15.78
2019-03-26T01:20:03.474Z,9.50
2019-03-26T01:20:42.443Z,20.00
2019-03-26T01:21:20.406Z,15.03
2019-03-26T01:21:58.392Z,12.05
2019-03-26T01:22:36.999Z,11.93
2019-03-26T01:23:15.242Z,11.95
2019-03-26T01:23:53.606Z,11.30
2019-03-26T01:24:32.172Z,14.78
2019-03-26T01:25:10.852Z,10.65
2019-03-26T01:25:49.114Z,15.45
2019-03-26T01:26:27.380Z,12.85
2019-03-26T01:27:05.498Z,11.95
2019-03-26T01:27:43.786Z,11.50
2019-03-26T01:28:21.418Z,9.55
2019-03-26T01:28:59.364Z,8.00
2019-03-26T01:29:37.251Z,14.33
2019-03-26T01:30:15.730Z,10.88
2019-03-26T01:30:54.386Z,13.28
2019-03-26T01:31:32.991Z,9.70
2019-03-26T01:32:11.310Z,18.10
2019-03-26T01:32:49.905Z,13.48
2019-03-26T01:33:28.604Z,16.87
2019-03-26T01:34:06.566Z,11.68
2019-03-26T01:34:46.174Z,13.25
2019-03-26T01:35:24.601Z,10.48
2019-03-26T01:36:02.974Z,10.50
2019-03-26T01:36:41.200Z,18.82
2019-03-26T01:37:19.431Z,9.88
2019-03-26T01:37:57.708Z,11.90
2019-03-26T01:38:36.435Z,10.38
2019-03-26T01:39:14.615Z,11.25
2019-03-26T01:40:11.722Z,17.82
2019-03-26T01:40:52.421Z,11.93
2019-03-26T01:41:30.661Z,11.25
2019-03-26T01:42:09.334Z,7.83
2019-03-26T01:42:47.588Z,12.53
2019-03-26T01:43:25.924Z,12.68
2019-03-26T01:44:04.939Z,16.20
2019-03-26T01:44:43.648Z,12.55
2019-03-26T01:45:22.287Z,10.48
2019-03-26T01:46:00.820Z,11.08
2019-03-26T01:46:39.320Z,7.65
2019-03-26T01:47:17.409Z,18.02
2019-03-26T01:47:56.125Z,12.90
2019-03-26T01:48:34.718Z,13.38
2019-03-26T01:49:12.553Z,20.25
2019-03-26T01:49:50.596Z,14.28
2019-03-26T01:50:28.823Z,10.05
2019-03-26T01:51:06.790Z,12.05
2019-03-26T01:51:45.311Z,8.63
2019-03-26T01:52:23.281Z,9.85
2019-03-26T01:53:01.794Z,12.20
2019-03-26T01:53:40.027Z,14.23
2019-03-26T01:54:18.767Z,17.57
2019-03-26T01:54:57.326Z,12.85
2019-03-26T01:55:35.614Z,9.83
2019-03-26T01:56:13.214Z,10.43
2019-03-26T01:56:51.582Z,14.73
2019-03-26T01:57:29.957Z,15.05
2019-03-26T01:58:26.746Z,11.28
2019-03-26T01:59:04.964Z,18.05
2019-03-26T01:59:45.126Z,10.05
2019-03-26T02:00:23.212Z,14.28
2019-03-26T02:01:01.607Z,11.38
2019-03-26T02:01:39.769Z,13.40
2019-03-26T02:02:17.718Z,9.23
2019-03-26T02:02:56.008Z,13.18
2019-03-26T02:03:34.006Z,8.33
2019-03-26T02:04:12.368Z,9.88
2019-03-26T02:04:59.777Z,14.43
2019-03-26T02:05:30.221Z,11.55
2019-03-26T02:06:08.364Z,9.78
2019-03-26T02:06:46.308Z,13.72
2019-03-26T02:07:24.960Z,13.05
2019-03-26T02:08:03.524Z,15.00
2019-03-26T02:08:41.929Z,9.93
2019-03-26T02:09:19.938Z,9.18
2019-03-26T02:09:58.422Z,18.20
2019-03-26T02:10:37.243Z,10.03
2019-03-26T02:11:15.207Z,16.80
2019-03-26T02:11:52.902Z,20.00
2019-03-26T02:12:31.548Z,16.02
2019-03-26T02:13:09.717Z,13.03
2019-03-26T02:13:48.024Z,24.37
2019-03-26T02:14:26.183Z,20.23
2019-03-26T02:15:04.384Z,14.28
2019-03-26T02:16:01.620Z,12.90
2019-03-26T02:16:39.868Z,19.40
2019-03-26T02:17:18.114Z,15.65
2019-03-26T02:17:56.728Z,16.02
2019-03-26T02:18:35.240Z,16.10
2019-03-26T02:19:12.812Z,16.60
2019-03-26T02:19:51.101Z,15.78
2019-03-26T02:20:29.501Z,14.65
2019-03-26T02:21:07.117Z,24.87
2019-03-26T02:21:45.319Z,18.07
2019-03-26T02:22:23.852Z,17.40
2019-03-26T02:23:02.401Z,18.07
2019-03-26T02:23:40.730Z,26.02
2019-03-26T02:24:18.586Z,20.48
2019-03-26T02:24:56.265Z,21.20
2019-03-26T02:25:34.659Z,17.02
2019-03-26T02:26:13.260Z,15.38
2019-03-26T02:26:50.892Z,22.30
2019-03-26T02:27:28.862Z,21.73
2019-03-26T02:28:06.973Z,22.17
2019-03-26T02:28:45.224Z,18.65
2019-03-26T02:29:23.864Z,28.12
2019-03-26T02:30:02.477Z,20.17
2019-03-26T02:30:40.973Z,16.52
2019-03-26T02:31:18.628Z,29.37
2019-03-26T02:31:56.785Z,24.65
2019-03-26T02:32:35.132Z,30.40
2019-03-26T02:33:13.123Z,17.52
2019-03-26T02:33:50.687Z,25.70
2019-03-26T02:34:29.193Z,19.12
2019-03-26T02:35:17.933Z,22.17
2019-03-26T02:35:47.428Z,19.62
2019-03-26T02:36:25.851Z,19.98
2019-03-26T02:37:07.502Z,19.25
2019-03-26T02:37:45.776Z,26.65
2019-03-26T02:38:24.249Z,20.45
2019-03-26T02:39:02.728Z,25.57
2019-03-26T02:39:40.397Z,26.20
2019-03-26T02:40:19.015Z,21.60
2019-03-26T02:40:57.309Z,23.87
2019-03-26T02:41:37.760Z,24.10
2019-03-26T02:42:15.515Z,17.67
2019-03-26T02:42:53.929Z,21.77
2019-03-26T02:43:31.278Z,17.80
2019-03-26T02:44:09.844Z,20.12
2019-03-26T02:44:48.092Z,21.02
2019-03-26T02:45:26.467Z,20.43
2019-03-26T02:46:05.231Z,20.68
2019-03-26T02:46:43.753Z,17.30
2019-03-26T02:47:22.690Z,16.07
2019-03-26T02:48:00.576Z,26.37
2019-03-26T02:48:39.223Z,17.82
2019-03-26T02:49:17.228Z,18.48
2019-03-26T02:49:55.860Z,22.80
2019-03-26T02:50:33.814Z,23.52
2019-03-26T02:51:12.402Z,18.67
2019-03-26T02:51:49.891Z,17.48
2019-03-26T02:52:28.155Z,20.10
2019-03-26T02:53:08.698Z,20.97
2019-03-26T02:53:46.241Z,18.73
2019-03-26T02:54:24.524Z,14.60
2019-03-26T02:55:03.131Z,23.57
2019-03-26T02:55:41.482Z,20.88
2019-03-26T02:56:19.989Z,15.95
2019-03-26T02:56:58.472Z,22.40
2019-03-26T02:57:36.873Z,16.40
2019-03-26T02:58:34.088Z,17.00
2019-03-26T02:59:12.429Z,17.23
2019-03-26T02:59:50.585Z,17.62
2019-03-26T03:00:28.666Z,15.90
2019-03-26T03:01:06.611Z,18.05
2019-03-26T03:01:45.054Z,18.57
2019-03-26T03:02:23.233Z,16.25
2019-03-26T03:03:01.796Z,15.25
2019-03-26T03:03:40.525Z,18.82
2019-03-26T03:04:18.789Z,20.12
2019-03-26T03:04:56.644Z,15.50
2019-03-26T03:05:36.216Z,22.17
2019-03-26T03:06:14.702Z,17.57
2019-03-26T03:06:52.698Z,22.15
2019-03-26T03:07:31.269Z,17.07
2019-03-26T03:08:09.704Z,12.65
2019-03-26T03:08:48.069Z,15.65
2019-03-26T03:09:26.600Z,18.20
2019-03-26T03:10:05.144Z,13.93
2019-03-26T03:10:43.490Z,24.70
2019-03-26T03:11:20.818Z,15.20
2019-03-26T03:11:59.675Z,13.45
2019-03-26T03:12:38.220Z,17.82
2019-03-26T03:13:16.559Z,12.95
2019-03-26T03:13:54.874Z,17.27
2019-03-26T03:14:32.955Z,16.05
2019-03-26T03:15:11.283Z,11.50
2019-03-26T03:15:49.990Z,20.30
2019-03-26T03:16:28.297Z,13.85
2019-03-26T03:17:06.896Z,17.15
2019-03-26T03:17:45.056Z,19.42
2019-03-26T03:18:23.575Z,21.55
2019-03-26T03:19:01.841Z,14.30
2019-03-26T03:19:39.882Z,18.07
2019-03-26T03:20:18.344Z,12.82
2019-03-26T03:20:56.573Z,24.70
2019-03-26T03:21:35.167Z,21.37
2019-03-26T03:22:13.410Z,12.28
2019-03-26T03:22:51.950Z,18.45
2019-03-26T03:23:30.459Z,17.27
2019-03-26T03:24:08.030Z,16.02
2019-03-26T03:24:45.876Z,11.75
2019-03-26T03:25:23.913Z,12.33
2019-03-26T03:26:02.138Z,12.95
2019-03-26T03:26:39.935Z,14.65
2019-03-26T03:27:18.206Z,11.38
2019-03-26T03:27:56.797Z,13.15
2019-03-26T03:28:38.773Z,13.58
2019-03-26T03:29:17.058Z,9.10
2019-03-26T03:29:55.697Z,10.75
2019-03-26T03:30:33.995Z,14.40
2019-03-26T03:31:12.312Z,15.60
2019-03-26T03:31:50.266Z,12.23
2019-03-26T03:32:32.362Z,13.65
2019-03-26T03:33:10.380Z,21.48
2019-03-26T03:33:48.966Z,12.70
2019-03-26T03:34:26.887Z,16.20
2019-03-26T03:35:05.487Z,14.45
2019-03-26T03:35:52.064Z,13.83
2019-03-26T03:36:23.316Z,23.62
2019-03-26T03:37:01.301Z,20.12
2019-03-26T03:37:39.547Z,10.88
2019-03-26T03:38:17.445Z,16.12
2019-03-26T03:38:55.708Z,11.45
2019-03-26T03:39:33.735Z,12.58
2019-03-26T03:40:11.994Z,11.88
2019-03-26T03:40:50.562Z,15.78
2019-03-26T03:41:29.164Z,13.62
2019-03-26T03:42:07.811Z,14.18
2019-03-26T03:42:46.240Z,10.88
2019-03-26T03:43:25.011Z,13.25
2019-03-26T03:44:03.293Z,17.25
2019-03-26T03:44:40.940Z,17.95
2019-03-26T03:45:28.058Z,14.28
2019-03-26T03:46:06.668Z,16.85
2019-03-26T03:46:47.640Z,14.00
2019-03-26T03:47:29.361Z,15.15
2019-03-26T03:48:08.229Z,14.23
2019-03-26T03:48:47.558Z,15.00
2019-03-26T03:49:28.420Z,16.27
2019-03-26T03:50:08.294Z,10.60
2019-03-26T03:50:47.773Z,10.05
2019-03-26T03:51:28.573Z,21.17
2019-03-26T03:52:07.648Z,13.58
2019-03-26T03:52:46.943Z,14.80
2019-03-26T03:53:25.492Z,21.95
2019-03-26T03:54:03.876Z,15.20
2019-03-26T03:54:45.130Z,20.77
2019-03-26T03:55:23.332Z,11.40
2019-03-26T03:56:03.251Z,13.72
2019-03-26T03:56:42.998Z,15.40
2019-03-26T03:57:23.872Z,12.55
2019-03-26T03:58:02.654Z,18.90
2019-03-26T03:58:43.427Z,19.82
2019-03-26T03:59:22.357Z,17.50
2019-03-26T04:00:02.480Z,17.98
2019-03-26T04:00:41.411Z,19.02
2019-03-26T04:01:18.977Z,14.47
2019-03-26T04:01:57.145Z,18.50
2019-03-26T04:02:35.358Z,14.58
2019-03-26T04:03:13.715Z,15.10
2019-03-26T04:03:52.358Z,19.55
2019-03-26T04:04:30.625Z,16.60
2019-03-26T04:05:08.453Z,13.58
2019-03-26T04:05:46.563Z,11.85
2019-03-26T04:06:24.845Z,21.50
2019-03-26T04:07:03.350Z,19.62
2019-03-26T04:07:40.646Z,29.90
2019-03-26T04:08:18.586Z,18.50
2019-03-26T04:08:56.473Z,18.27
2019-03-26T04:09:34.841Z,14.68
2019-03-26T04:10:13.274Z,21.02
2019-03-26T04:10:50.972Z,16.20
2019-03-26T04:11:29.669Z,13.65
2019-03-26T04:12:07.699Z,14.87
2019-03-26T04:12:45.850Z,23.98
2019-03-26T04:13:24.175Z,26.57
2019-03-26T04:14:02.426Z,20.32
2019-03-26T04:14:40.433Z,17.05
2019-03-26T04:15:18.840Z,20.77
2019-03-26T04:15:57.153Z,17.42
2019-03-26T04:16:35.130Z,14.87
2019-03-26T04:17:13.342Z,12.43
2019-03-26T04:17:50.992Z,22.25
2019-03-26T04:18:47.944Z,12.55
2019-03-26T04:19:26.168Z,11.18
2019-03-26T04:20:05.175Z,18.15
2019-03-26T04:20:52.156Z,26.40
2019-03-26T04:21:30.851Z,16.05
2019-03-26T04:22:09.475Z,23.35
2019-03-26T04:22:47.744Z,17.35
2019-03-26T04:23:26.178Z,24.12
2019-03-26T04:24:04.171Z,16.02
2019-03-26T04:24:42.697Z,18.32
2019-03-26T04:25:20.901Z,14.60
2019-03-26T04:25:59.180Z,16.95
2019-03-26T04:26:37.569Z,18.25
2019-03-26T04:27:15.552Z,18.12
2019-03-26T04:27:53.949Z,30.15
2019-03-26T04:28:32.158Z,11.22
2019-03-26T04:29:09.803Z,18.30
2019-03-26T04:29:48.064Z,24.00
2019-03-26T04:30:30.715Z,18.48
2019-03-26T04:31:09.029Z,18.65
2019-03-26T04:31:47.209Z,16.77
2019-03-26T04:32:25.513Z,23.42
2019-03-26T04:33:03.356Z,30.17
2019-03-26T04:33:40.629Z,23.10
2019-03-26T04:34:22.402Z,23.00
2019-03-26T04:34:58.492Z,15.75
2019-03-26T04:35:36.813Z,19.87
2019-03-26T04:36:25.367Z,26.87
2019-03-26T04:36:55.281Z,16.50
2019-03-26T04:37:33.860Z,18.30
2019-03-26T04:38:12.471Z,20.85
2019-03-26T04:38:50.382Z,14.87
2019-03-26T04:39:28.485Z,20.65
2019-03-26T04:40:07.195Z,25.88
2019-03-26T04:40:45.163Z,21.37
2019-03-26T04:41:23.345Z,25.12
2019-03-26T04:42:01.966Z,18.00
2019-03-26T04:42:40.555Z,15.75
2019-03-26T04:43:19.123Z,12.10
2019-03-26T04:43:57.363Z,12.78
2019-03-26T04:44:35.313Z,22.95
2019-03-26T04:45:13.613Z,20.08
2019-03-26T04:45:51.505Z,19.30
2019-03-26T04:46:29.693Z,13.40
2019-03-26T04:47:12.363Z,19.75
2019-03-26T04:47:50.622Z,23.05
2019-03-26T04:48:29.242Z,18.00
2019-03-26T04:49:07.825Z,23.10
2019-03-26T04:49:45.697Z,16.40
2019-03-26T04:50:24.107Z,17.98
2019-03-26T04:51:02.084Z,15.95
2019-03-26T04:51:40.292Z,18.17
2019-03-26T04:52:18.608Z,21.23
2019-03-26T04:52:56.897Z,18.02
2019-03-26T04:53:34.770Z,17.35
2019-03-26T04:54:12.667Z,18.95
2019-03-26T04:54:50.607Z,30.32
2019-03-26T04:55:28.753Z,23.42
2019-03-26T04:56:06.955Z,14.30
2019-03-26T04:56:45.637Z,20.35
2019-03-26T04:57:23.931Z,17.77
2019-03-26T04:58:02.557Z,13.68
2019-03-26T04:58:43.814Z,11.97
2019-03-26T04:59:20.390Z,17.02
2019-03-26T04:59:58.357Z,12.23
2019-03-26T05:00:36.713Z,13.45
2019-03-26T05:01:15.169Z,9.93
2019-03-26T05:01:52.843Z,13.60
2019-03-26T05:02:30.851Z,18.75
2019-03-26T05:03:08.761Z,17.32
2019-03-26T05:03:47.032Z,21.35
2019-03-26T05:04:24.724Z,19.10
2019-03-26T05:05:03.237Z,24.40
2019-03-26T05:05:41.215Z,12.90
2019-03-26T05:06:19.533Z,18.27
2019-03-26T05:06:57.597Z,13.18
2019-03-26T05:07:35.812Z,22.17
2019-03-26T05:08:14.105Z,13.70
2019-03-26T05:08:52.703Z,21.12
2019-03-26T05:09:31.029Z,9.38
2019-03-26T05:10:10.273Z,15.30
2019-03-26T05:10:49.356Z,18.02
2019-03-26T05:11:27.771Z,10.25
2019-03-26T05:12:06.449Z,16.57
2019-03-26T05:12:44.747Z,14.07
2019-03-26T05:13:23.499Z,14.40
2019-03-26T05:14:02.054Z,22.45
2019-03-26T05:14:40.439Z,18.37
2019-03-26T05:15:18.798Z,9.50
2019-03-26T05:15:57.369Z,16.50
2019-03-26T05:16:35.835Z,13.38
2019-03-26T05:17:14.479Z,15.60
2019-03-26T05:17:53.016Z,16.65
2019-03-26T05:18:31.598Z,20.52
2019-03-26T05:19:09.595Z,14.45
2019-03-26T05:19:47.891Z,11.20
2019-03-26T05:20:26.078Z,18.48
2019-03-26T05:21:22.247Z,19.95
2019-03-26T05:22:00.875Z,21.45
2019-03-26T05:22:39.109Z,17.00
2019-03-26T05:23:17.313Z,14.15
2019-03-26T05:23:55.285Z,18.37
2019-03-26T05:24:33.874Z,14.33
2019-03-26T05:25:12.387Z,14.55
2019-03-26T05:25:50.597Z,20.75
2019-03-26T05:26:28.803Z,12.85
2019-03-26T05:27:07.011Z,17.87
2019-03-26T05:27:45.836Z,17.42
2019-03-26T05:28:24.200Z,11.35
2019-03-26T05:29:02.152Z,14.38
2019-03-26T05:29:40.067Z,13.32
2019-03-26T05:30:18.391Z,17.07
2019-03-26T05:30:55.915Z,15.23
2019-03-26T05:31:34.044Z,17.92
2019-03-26T05:32:12.545Z,10.35
2019-03-26T05:32:51.100Z,19.92
2019-03-26T05:33:29.413Z,12.70
2019-03-26T05:34:07.842Z,14.30
2019-03-26T05:34:45.735Z,13.72
2019-03-26T05:35:23.784Z,17.02
2019-03-26T05:36:02.406Z,12.07
2019-03-26T05:36:50.584Z,19.05
2019-03-26T05:37:20.929Z,12.47
2019-03-26T05:37:59.095Z,24.25
2019-03-26T05:38:37.427Z,15.23
2019-03-26T05:39:15.721Z,13.58
2019-03-26T05:39:54.372Z,9.83
2019-03-26T05:40:32.022Z,11.57
2019-03-26T05:41:10.787Z,11.18
2019-03-26T05:41:49.047Z,9.95
2019-03-26T05:42:32.649Z,9.53
2019-03-26T05:43:10.877Z,13.28
2019-03-26T05:43:49.417Z,13.13
2019-03-26T05:44:27.675Z,13.80
2019-03-26T05:45:06.129Z,16.05
2019-03-26T05:45:44.709Z,17.45
2019-03-26T05:46:23.161Z,18.37
2019-03-26T05:47:01.854Z,14.98
2019-03-26T05:47:40.777Z,15.00
2019-03-26T05:48:19.259Z,9.13
2019-03-26T05:48:58.539Z,5.33
2019-03-26T05:49:39.877Z,14.30
2019-03-26T05:50:17.861Z,8.15
2019-03-26T05:50:55.825Z,10.13
2019-03-26T05:51:34.469Z,18.12
2019-03-26T05:52:14.027Z,18.27
2019-03-26T05:52:51.833Z,7.85
2019-03-26T05:53:29.891Z,12.35
2019-03-26T05:54:07.783Z,9.58
2019-03-26T05:55:04.990Z,10.00
2019-03-26T05:55:42.889Z,11.20
2019-03-26T05:56:21.280Z,8.33
2019-03-26T05:56:59.581Z,14.78
2019-03-26T05:57:38.699Z,12.53
2019-03-26T05:58:16.685Z,14.93
2019-03-26T05:58:54.980Z,14.85
2019-03-26T05:59:33.007Z,11.65
2019-03-26T06:00:17.032Z,12.13
2019-03-26T06:01:13.559Z,13.93
2019-03-26T06:01:51.873Z,13.22
2019-03-26T06:02:29.847Z,9.53
2019-03-26T06:03:07.827Z,13.30
2019-03-26T06:03:49.837Z,10.95
2019-03-26T06:04:28.161Z,16.52
2019-03-26T06:05:07.259Z,15.45
2019-03-26T06:05:45.714Z,8.58
2019-03-26T06:06:23.994Z,11.73
2019-03-26T06:07:04.966Z,5.53
2019-03-26T06:07:42.345Z,10.72
2019-03-26T06:08:20.339Z,8.65
2019-03-26T06:08:58.785Z,10.08
2019-03-26T06:09:37.323Z,9.13
2019-03-26T06:10:15.500Z,11.05
2019-03-26T06:10:53.667Z,12.37
2019-03-26T06:11:31.672Z,6.92
2019-03-26T06:12:09.301Z,8.53
2019-03-26T06:12:50.177Z,10.20
2019-03-26T06:13:27.949Z,8.55
2019-03-26T06:14:05.940Z,5.05
2019-03-26T06:14:44.385Z,11.08
2019-03-26T06:15:23.076Z,12.47
2019-03-26T06:16:01.796Z,9.25
2019-03-26T06:16:39.949Z,8.95
2019-03-26T06:17:18.354Z,6.33
2019-03-26T06:17:57.677Z,10.98
2019-03-26T06:18:36.047Z,7.87
2019-03-26T06:19:14.506Z,12.53
2019-03-26T06:19:52.783Z,8.58
2019-03-26T06:20:30.773Z,10.45
2019-03-26T06:21:09.400Z,7.58
2019-03-26T06:21:47.969Z,6.20
2019-03-26T06:22:26.225Z,8.00
2019-03-26T06:23:04.259Z,13.22
2019-03-26T06:23:42.157Z,8.50
2019-03-26T06:24:20.755Z,15.48
2019-03-26T06:24:59.009Z,9.75
2019-03-26T06:25:37.770Z,11.38
2019-03-26T06:26:16.089Z,11.88
2019-03-26T06:26:54.713Z,9.10
2019-03-26T06:27:32.864Z,11.53
2019-03-26T06:28:10.439Z,13.38
2019-03-26T06:28:48.843Z,8.43
2019-03-26T06:29:27.209Z,7.80
2019-03-26T06:30:06.130Z,7.17
2019-03-26T06:30:44.142Z,11.73
2019-03-26T06:31:22.417Z,9.03
2019-03-26T06:32:00.972Z,14.03
2019-03-26T06:32:39.629Z,7.12
2019-03-26T06:33:18.057Z,5.60
2019-03-26T06:34:04.881Z,16.20
2019-03-26T06:34:44.951Z,9.15
2019-03-26T06:35:23.209Z,9.23
2019-03-26T06:36:01.596Z,6.00
2019-03-26T06:36:40.287Z,6.00
2019-03-26T06:37:18.503Z,4.37
2019-03-26T06:37:56.585Z,11.38
2019-03-26T06:38:34.467Z,8.00
2019-03-26T06:39:12.555Z,11.28
2019-03-26T06:39:50.146Z,17.60
2019-03-26T06:40:28.135Z,9.83
2019-03-26T06:41:06.171Z,10.05
2019-03-26T06:41:44.109Z,4.17
2019-03-26T06:42:22.444Z,5.62
2019-03-26T06:43:00.973Z,6.00
2019-03-26T06:43:39.015Z,7.50
2019-03-26T06:44:16.689Z,11.08
2019-03-26T06:44:54.532Z,7.80
2019-03-26T06:45:32.898Z,9.50
2019-03-26T06:46:10.589Z,6.47
2019-03-26T06:46:48.247Z,8.85
2019-03-26T06:47:26.193Z,9.30
2019-03-26T06:48:04.566Z,12.20
2019-03-26T06:48:42.862Z,9.48
2019-03-26T06:49:20.927Z,6.70
2019-03-26T06:49:58.562Z,8.23
2019-03-26T06:50:37.009Z,8.15
2019-03-26T06:51:15.420Z,10.35
2019-03-26T06:51:53.803Z,5.65
2019-03-26T06:52:32.221Z,14.20
2019-03-26T06:53:09.839Z,6.92
2019-03-26T06:53:48.426Z,5.15
2019-03-26T06:54:26.950Z,10.10
2019-03-26T06:55:05.757Z,6.90
2019-03-26T06:55:43.931Z,6.70
2019-03-26T06:56:22.314Z,5.70
2019-03-26T06:57:01.229Z,4.72
2019-03-26T06:57:39.381Z,10.60
2019-03-26T06:58:18.021Z,10.50
2019-03-26T06:58:56.621Z,6.17
2019-03-26T06:59:34.295Z,8.73
2019-03-26T07:00:12.968Z,11.50
2019-03-26T07:00:51.354Z,6.15
2019-03-26T07:01:29.713Z,6.35
2019-03-26T07:02:08.543Z,10.10
2019-03-26T07:02:46.917Z,8.80
2019-03-26T07:03:24.852Z,5.12
2019-03-26T07:04:03.207Z,8.80
2019-03-26T07:04:47.036Z,10.15
2019-03-26T07:05:25.180Z,12.10
2019-03-26T07:06:03.921Z,10.28
2019-03-26T07:06:42.609Z,7.53
2019-03-26T07:07:30.932Z,10.55
2019-03-26T07:08:01.165Z,8.38
2019-03-26T07:08:41.848Z,10.68
2019-03-26T07:09:20.437Z,5.45
2019-03-26T07:09:58.336Z,5.87
2019-03-26T07:10:36.839Z,9.80
2019-03-26T07:11:15.035Z,10.72
2019-03-26T07:11:53.944Z,7.12
2019-03-26T07:12:31.950Z,9.35
2019-03-26T07:13:10.388Z,11.55
2019-03-26T07:13:48.691Z,9.55
2019-03-26T07:14:26.628Z,13.95
2019-03-26T07:15:05.745Z,10.28
2019-03-26T07:15:44.244Z,11.40
2019-03-26T07:16:22.156Z,7.22
2019-03-26T07:17:00.598Z,13.40
2019-03-26T07:17:39.439Z,8.93
2019-03-26T07:18:17.666Z,11.70
2019-03-26T07:18:55.785Z,6.97
2019-03-26T07:19:33.727Z,10.18
2019-03-26T07:20:12.484Z,6.87
2019-03-26T07:20:50.585Z,6.90
2019-03-26T07:21:29.229Z,9.78
2019-03-26T07:22:07.506Z,10.45
2019-03-26T07:22:45.948Z,6.30
2019-03-26T07:23:24.023Z,8.55
2019-03-26T07:24:02.633Z,5.85
2019-03-26T07:24:40.989Z,6.85
2019-03-26T07:25:19.947Z,9.18
2019-03-26T07:25:58.081Z,13.68
2019-03-26T07:26:36.451Z,6.00
2019-03-26T07:27:14.523Z,10.55
2019-03-26T07:27:53.284Z,11.45
2019-03-26T07:28:31.591Z,11.68
2019-03-26T07:29:10.136Z,8.48
2019-03-26T07:29:48.495Z,7.35
2019-03-26T07:30:51.011Z,7.20
2019-03-26T07:31:29.523Z,11.50
2019-03-26T07:32:07.179Z,6.08
2019-03-26T07:32:45.678Z,11.30
2019-03-26T07:33:23.706Z,7.20
2019-03-26T07:34:01.083Z,8.98
2019-03-26T07:34:39.368Z,6.47
2019-03-26T07:35:17.698Z,8.10
2019-03-26T07:35:55.754Z,11.80
2019-03-26T07:36:33.844Z,16.90
2019-03-26T07:37:12.026Z,9.20
2019-03-26T07:37:50.727Z,9.35
2019-03-26T07:38:28.843Z,13.15
2019-03-26T07:39:08.250Z,11.73
2019-03-26T07:39:46.844Z,9.55
2019-03-26T07:40:25.419Z,6.20
2019-03-26T07:41:03.451Z,6.58
2019-03-26T07:41:41.700Z,12.00
2019-03-26T07:42:38.336Z,13.62
2019-03-26T07:43:16.282Z,11.93
2019-03-26T07:43:54.517Z,12.18
2019-03-26T07:44:33.092Z,6.25
2019-03-26T07:45:11.555Z,9.65
2019-03-26T07:45:50.032Z,8.68
2019-03-26T07:46:28.316Z,9.78
2019-03-26T07:47:06.977Z,8.00
2019-03-26T07:47:45.284Z,12.88
2019-03-26T07:48:23.688Z,9.58
2019-03-26T07:49:01.689Z,17.05
2019-03-26T07:49:39.724Z,9.75
2019-03-26T07:50:18.327Z,6.70
2019-03-26T07:50:56.591Z,13.20
2019-03-26T07:51:34.530Z,9.73
2019-03-26T07:52:15.529Z,12.70
2019-03-26T07:52:53.058Z,6.47
2019-03-26T07:53:31.328Z,8.60
2019-03-26T07:54:09.643Z,14.75
2019-03-26T07:54:48.142Z,6.95
2019-03-26T07:55:25.852Z,8.73
2019-03-26T07:56:04.460Z,14.73
2019-03-26T07:56:42.391Z,9.45
2019-03-26T07:57:21.064Z,9.95
2019-03-26T07:57:59.398Z,9.93
2019-03-26T07:58:37.484Z,4.90
2019-03-26T07:59:15.884Z,7.45
2019-03-26T07:59:53.439Z,7.30
2019-03-26T08:00:38.249Z,13.50
2019-03-26T08:01:16.442Z,7.55
2019-03-26T08:01:54.413Z,5.67
2019-03-26T08:02:32.672Z,9.78
2019-03-26T08:03:10.560Z,9.15
2019-03-26T08:03:48.946Z,5.70
2019-03-26T08:04:27.194Z,8.38
2019-03-26T08:05:05.561Z,10.63
2019-03-26T08:05:43.893Z,11.30
2019-03-26T08:06:21.876Z,4.45
2019-03-26T08:06:59.627Z,9.28
2019-03-26T08:07:38.270Z,7.78
2019-03-26T08:08:16.588Z,7.85
2019-03-26T08:08:55.240Z,5.78
2019-03-26T08:09:34.272Z,10.32
2019-03-26T08:10:13.134Z,4.47
2019-03-26T08:10:51.392Z,11.30
2019-03-26T08:11:29.692Z,8.53
2019-03-26T08:12:08.128Z,10.58
2019-03-26T08:12:46.724Z,13.62
2019-03-26T08:13:25.002Z,12.43
2019-03-26T08:14:03.253Z,10.95
2019-03-26T08:14:41.494Z,12.63
2019-03-26T08:15:20.369Z,9.98
2019-03-26T08:15:58.512Z,12.25
2019-03-26T08:16:36.542Z,8.43
2019-03-26T08:17:14.575Z,11.73
2019-03-26T08:17:52.491Z,9.73
2019-03-26T08:18:30.782Z,6.78
2019-03-26T08:19:09.398Z,7.05
2019-03-26T08:19:48.174Z,8.40
2019-03-26T08:20:26.911Z,13.72
2019-03-26T08:21:05.317Z,13.03
2019-03-26T08:21:43.512Z,8.55
2019-03-26T08:22:22.142Z,4.83
2019-03-26T08:23:00.180Z,6.90
2019-03-26T08:23:38.522Z,7.25